Time;durP1;ratioP1;P1;durP2;ratioP2;P2;SDS_P1;SDS_P2;PMS_P1;PMS_P2;Temp;Humidity;BMP_temperature;BMP_pressure;BME280_temperature;BME280_humidity;BME280_pressure;Samples;Min_cycle;Max_cycle;Signal;HPM_P1;HPM_P2
2021/09/04 00:01:04;;;;;;;7.45;3.35;;;;;;;12.49;68.98;96720.59;5055866;28;20033;-57
2021/09/04 00:03:30;;;;;;;8.57;3.60;;;;;;;12.46;69.34;96720.72;5055923;28;20013;-55
2021/09/04 00:05:56;;;;;;;7.32;2.88;;;;;;;12.49;68.57;96725.84;5055717;28;20032;-56
2021/09/04 00:08:21;;;;;;;8.15;3.30;;;;;;;12.38;68.86;96728.09;5055605;28;20375;-56
2021/09/04 00:10:47;;;;;;;4.93;2.97;;;;;;;12.37;68.79;96726.34;5055764;28;20356;-54
2021/09/04 00:13:13;;;;;;;4.82;3.15;;;;;;;12.30;69.16;96732.78;5055822;28;20106;-53
2021/09/04 00:15:38;;;;;;;6.95;3.50;;;;;;;12.28;69.38;96734.63;5055743;28;20044;-56
2021/09/04 00:18:04;;;;;;;5.32;3.20;;;;;;;12.29;69.48;96731.09;5055557;28;20083;-57
2021/09/04 00:20:30;;;;;;;4.80;2.30;;;;;;;12.23;69.78;96726.94;5055487;28;20074;-57
2021/09/04 00:22:56;;;;;;;8.65;3.53;;;;;;;12.09;70.25;96724.88;5055439;28;20036;-53
2021/09/04 00:25:21;;;;;;;3.30;2.80;;;;;;;12.04;70.24;96735.53;5055553;28;20017;-57
2021/09/04 00:27:48;;;;;;;6.75;3.22;;;;;;;12.04;69.92;96737.31;5055354;28;20111;-57
2021/09/04 00:30:14;;;;;;;9.95;3.38;;;;;;;12.04;69.84;96732.91;5055248;28;20091;-57
2021/09/04 00:32:40;;;;;;;11.98;3.83;;;;;;;12.00;69.41;96731.34;5055208;28;20024;-53
2021/09/04 00:35:06;;;;;;;5.90;3.00;;;;;;;11.97;69.33;96729.69;5055371;28;20028;-56
2021/09/04 00:37:32;;;;;;;7.80;2.90;;;;;;;11.95;70.05;96717.56;5055240;28;20032;-59
2021/09/04 00:39:57;;;;;;;4.78;2.90;;;;;;;12.02;69.79;96721.66;5055358;28;20033;-57
2021/09/04 00:42:23;;;;;;;8.88;3.55;;;;;;;11.98;70.13;96720.06;5055102;28;20025;-58
2021/09/04 00:44:49;;;;;;;3.85;2.95;;;;;;;12.00;69.91;96712.97;5055109;28;20070;-58
2021/09/04 00:47:14;;;;;;;8.38;2.88;;;;;;;12.05;69.63;96718.03;5054988;28;20367;-58
2021/09/04 00:49:40;;;;;;;6.50;3.00;;;;;;;12.06;69.31;96723.22;5055127;28;20021;-57
2021/09/04 00:52:07;;;;;;;8.38;3.03;;;;;;;12.04;68.86;96709.31;5055051;28;20032;-55
2021/09/04 00:54:34;;;;;;;4.82;2.97;;;;;;;11.96;69.09;96719.28;5054960;28;20029;-54
2021/09/04 00:57:00;;;;;;;4.13;2.80;;;;;;;11.98;70.24;96722.69;5054861;28;20025;-57
2021/09/04 00:59:26;;;;;;;7.22;2.70;;;;;;;12.05;69.37;96721.53;5054561;28;20095;-57
2021/09/04 01:01:51;;;;;;;5.78;2.58;;;;;;;12.01;68.70;96712.06;5054816;28;20029;-56
2021/09/04 01:04:17;;;;;;;7.15;2.67;;;;;;;11.99;68.91;96708.66;5054692;28;20028;-59
2021/09/04 01:06:43;;;;;;;7.28;3.15;;;;;;;11.95;69.12;96712.34;5054609;28;20033;-59
2021/09/04 01:09:08;;;;;;;6.43;3.00;;;;;;;12.03;69.43;96717.25;5054590;28;20479;-59
2021/09/04 01:11:34;;;;;;;5.05;2.78;;;;;;;12.00;69.32;96713.84;5054579;28;20074;-56
2021/09/04 01:14:00;;;;;;;9.98;3.15;;;;;;;12.00;69.18;96707.75;5054502;28;20112;-58
2021/09/04 01:16:40;;;;;;;4.07;2.83;;;;;;;11.98;68.82;96720.91;5054457;28;20017;-59
2021/09/04 01:19:07;;;;;;;3.83;1.97;;;;;;;11.98;67.77;96720.06;5054368;28;20024;-57
2021/09/04 01:21:33;;;;;;;6.35;3.53;;;;;;;11.88;68.23;96723.06;5054279;28;20262;-58
2021/09/04 01:24:00;;;;;;;5.90;3.10;;;;;;;11.82;68.13;96725.06;5054399;28;20363;-59
2021/09/04 01:26:27;;;;;;;5.78;3.15;;;;;;;11.75;68.29;96727.09;5054298;28;20021;-54
2021/09/04 01:28:55;;;;;;;5.05;3.50;;;;;;;11.69;69.61;96728.19;5054150;28;20094;-56
2021/09/04 01:31:23;;;;;;;10.18;3.30;;;;;;;11.68;69.74;96715.97;5054192;28;20029;-57
2021/09/04 01:33:48;;;;;;;5.05;2.90;;;;;;;11.62;69.67;96703.16;5054153;28;20033;-57
2021/09/04 01:36:27;;;;;;;4.85;2.85;;;;;;;11.60;69.50;96700.59;5054085;28;20029;-59
2021/09/04 01:38:52;;;;;;;3.95;2.75;;;;;;;11.55;70.13;96696.41;5054088;28;20078;-57
2021/09/04 01:41:18;;;;;;;4.65;3.40;;;;;;;11.48;69.97;96696.69;5054045;28;20107;-57
2021/09/04 01:43:43;;;;;;;5.65;3.10;;;;;;;11.45;70.01;96695.94;5054079;28;20370;-55
2021/09/04 01:46:09;;;;;;;7.13;3.20;;;;;;;11.43;70.58;96685.53;5053997;28;20104;-56
2021/09/04 01:48:34;;;;;;;7.10;3.13;;;;;;;11.42;70.67;96696.06;5053723;28;20548;-56
2021/09/04 01:51:00;;;;;;;5.57;3.33;;;;;;;11.44;71.46;96689.84;5053844;28;20047;-56
2021/09/04 01:53:26;;;;;;;5.25;3.17;;;;;;;11.45;70.72;96690.69;5053778;28;20029;-57
2021/09/04 01:55:51;;;;;;;6.05;2.92;;;;;;;11.46;70.71;96690.66;5053605;28;20047;-57
2021/09/04 01:58:16;;;;;;;6.28;2.97;;;;;;;11.45;70.81;96680.22;5052873;28;20051;-54
2021/09/04 02:00:42;;;;;;;10.07;3.70;;;;;;;11.52;70.55;96688.69;5053675;28;20025;-57
2021/09/04 02:03:08;;;;;;;6.68;3.38;;;;;;;11.48;69.84;96690.59;5053539;28;20052;-59
2021/09/04 02:05:33;;;;;;;6.90;3.30;;;;;;;11.30;71.39;96686.91;5053575;28;20104;-58
2021/09/04 02:07:59;;;;;;;5.90;3.20;;;;;;;11.25;70.94;96687.94;5053645;28;20028;-57
2021/09/04 02:10:25;;;;;;;9.98;3.97;;;;;;;11.20;70.94;96684.63;5053450;28;20638;-59
2021/09/04 02:12:50;;;;;;;5.38;3.25;;;;;;;11.18;70.73;96678.63;5053341;28;20021;-58
2021/09/04 02:15:17;;;;;;;4.22;2.72;;;;;;;11.21;71.10;96682.88;5053618;28;20019;-56
2021/09/04 02:17:43;;;;;;;5.05;3.30;;;;;;;11.24;71.01;96678.41;5053425;28;20048;-58
2021/09/04 02:20:11;;;;;;;5.18;3.05;;;;;;;11.24;71.35;96669.69;5053303;28;20048;-57
2021/09/04 02:22:36;;;;;;;4.88;3.65;;;;;;;11.30;71.32;96685.16;5053278;28;20458;-58
2021/09/04 02:25:04;;;;;;;4.65;2.95;;;;;;;11.38;71.41;96690.09;5053320;28;20100;-57
2021/09/04 02:27:29;;;;;;;5.97;3.03;;;;;;;11.39;70.91;96689.19;5053289;28;20405;-59
2021/09/04 02:29:55;;;;;;;6.78;3.28;;;;;;;11.42;70.04;96689.06;5053271;28;20025;-58
2021/09/04 02:32:20;;;;;;;6.80;3.05;;;;;;;11.37;70.65;96678.75;5053156;28;20132;-55
2021/09/04 02:34:46;;;;;;;5.60;2.95;;;;;;;11.41;70.37;96676.03;5053317;28;20160;-58
2021/09/04 02:37:11;;;;;;;8.73;3.72;;;;;;;11.44;71.01;96674.13;5053153;28;20074;-56
2021/09/04 02:39:37;;;;;;;7.28;3.17;;;;;;;11.45;70.91;96681.09;5053129;28;20360;-57
2021/09/04 02:42:02;;;;;;;7.72;3.40;;;;;;;11.46;70.80;96679.31;5053032;28;20025;-59
2021/09/04 02:44:28;;;;;;;7.00;3.20;;;;;;;11.49;71.03;96676.56;5053005;28;20057;-56
2021/09/04 02:46:54;;;;;;;5.40;2.95;;;;;;;11.49;70.64;96671.31;5053056;28;20430;-56
2021/09/04 02:49:19;;;;;;;5.57;3.17;;;;;;;11.52;70.93;96665.97;5052985;28;20116;-56
2021/09/04 02:51:45;;;;;;;7.50;3.40;;;;;;;11.52;71.47;96662.47;5052946;28;20023;-54
2021/09/04 02:54:11;;;;;;;10.35;3.20;;;;;;;11.44;71.70;96657.56;5052928;28;20017;-56
2021/09/04 02:56:37;;;;;;;8.27;3.08;;;;;;;11.45;71.88;96652.28;5052941;28;20375;-57
2021/09/04 02:59:02;;;;;;;8.18;3.33;;;;;;;11.57;72.35;96661.41;5052595;28;20041;-56
2021/09/04 03:01:28;;;;;;;5.53;2.97;;;;;;;11.67;72.10;96661.00;5052825;28;20032;-56
2021/09/04 03:03:54;;;;;;;6.57;2.90;;;;;;;11.74;72.17;96667.75;5052912;28;20029;-56
2021/09/04 03:06:19;;;;;;;5.68;3.38;;;;;;;11.73;72.05;96663.41;5052816;28;20100;-58
2021/09/04 03:08:45;;;;;;;8.40;3.22;;;;;;;11.76;72.66;96663.28;5052816;28;20087;-58
2021/09/04 03:11:10;;;;;;;7.03;3.00;;;;;;;11.75;72.31;96661.56;5056845;28;20075;-58
2021/09/04 03:13:36;;;;;;;8.80;3.15;;;;;;;11.80;72.55;96651.75;5056854;28;20021;-57
2021/09/04 03:16:01;;;;;;;4.82;3.13;;;;;;;11.87;72.88;96660.22;5056750;28;20102;-58
2021/09/04 03:18:27;;;;;;;5.88;3.55;;;;;;;11.96;73.20;96659.84;5056694;28;20104;-55
2021/09/04 03:20:52;;;;;;;6.05;3.45;;;;;;;12.01;72.82;96657.88;5056658;28;20479;-59
2021/09/04 03:23:18;;;;;;;5.88;2.88;;;;;;;12.07;72.90;96661.19;5056595;28;20029;-58
2021/09/04 03:25:43;;;;;;;3.70;3.03;;;;;;;12.07;72.76;96659.41;5056574;28;20119;-56
2021/09/04 03:28:09;;;;;;;5.63;3.13;;;;;;;12.11;72.58;96657.50;5056468;28;20029;-55
2021/09/04 03:30:35;;;;;;;7.90;2.97;;;;;;;12.15;72.76;96655.59;5056469;28;20029;-55
2021/09/04 03:33:00;;;;;;;4.65;3.13;;;;;;;12.12;72.86;96652.22;5056382;28;20025;-56
2021/09/04 03:35:26;;;;;;;4.85;2.50;;;;;;;12.15;72.59;96651.22;5056318;28;20493;-55
2021/09/04 03:37:51;;;;;;;7.53;3.40;;;;;;;12.23;72.55;96646.50;5055237;28;20041;-56
2021/09/04 03:40:17;;;;;;;4.88;3.30;;;;;;;12.31;72.61;96653.19;5056354;28;20027;-59
2021/09/04 03:42:42;;;;;;;5.05;2.97;;;;;;;12.34;72.11;96659.16;5056246;28;20029;-55
2021/09/04 03:45:09;;;;;;;4.28;2.90;;;;;;;12.34;71.90;96666.19;5056103;28;20025;-55
2021/09/04 03:47:34;;;;;;;6.22;3.42;;;;;;;12.30;72.02;96661.97;5055984;28;20162;-56
2021/09/04 03:50:00;;;;;;;6.53;3.30;;;;;;;12.34;72.15;96681.91;5056075;28;20013;-57
2021/09/04 03:52:26;;;;;;;5.25;3.28;;;;;;;12.32;71.78;96674.13;5056089;28;20025;-55
2021/09/04 03:54:51;;;;;;;6.80;3.15;;;;;;;12.34;72.15;96664.38;5056198;28;20099;-58
2021/09/04 03:57:17;;;;;;;5.55;3.40;;;;;;;12.34;71.80;96668.81;5055911;28;20100;-56
2021/09/04 03:59:42;;;;;;;4.40;2.88;;;;;;;12.30;71.89;96670.69;5055802;28;20056;-55
2021/09/04 04:02:08;;;;;;;5.60;3.50;;;;;;;12.30;72.57;96668.06;5055981;28;20482;-56
2021/09/04 04:04:33;;;;;;;6.75;3.53;;;;;;;12.35;72.42;96665.25;5055921;28;20029;-58
2021/09/04 04:06:59;;;;;;;7.28;3.42;;;;;;;12.42;72.05;96652.72;5055772;28;20052;-56
2021/09/04 04:09:24;;;;;;;4.97;3.33;;;;;;;12.43;71.58;96660.50;5055739;28;20477;-56
2021/09/04 04:11:50;;;;;;;5.55;3.10;;;;;;;12.48;71.28;96660.31;5055654;28;20108;-55
2021/09/04 04:14:15;;;;;;;7.55;3.22;;;;;;;12.46;71.31;96659.56;5055733;28;20033;-57
2021/09/04 04:16:41;;;;;;;5.57;2.97;;;;;;;12.54;71.34;96661.81;5055826;28;20033;-57
2021/09/04 04:19:06;;;;;;;7.40;2.92;;;;;;;12.63;71.17;96664.91;5054394;28;20553;-55
2021/09/04 04:21:33;;;;;;;6.95;2.50;;;;;;;12.72;70.90;96663.63;5055071;28;20017;-57
2021/09/04 04:23:59;;;;;;;7.35;2.92;;;;;;;12.80;70.48;96662.44;5055609;28;20029;-56
2021/09/04 04:26:24;;;;;;;4.95;3.00;;;;;;;12.83;70.37;96673.66;5055565;28;20397;-55
2021/09/04 04:28:50;;;;;;;5.13;3.13;;;;;;;12.86;70.18;96681.38;5055455;28;20025;-59
2021/09/04 04:31:15;;;;;;;5.32;3.17;;;;;;;12.97;70.29;96675.66;5055454;28;20550;-58
2021/09/04 04:33:41;;;;;;;6.05;3.08;;;;;;;13.07;70.07;96683.97;5055340;28;20025;-52
2021/09/04 04:36:07;;;;;;;4.47;3.08;;;;;;;13.32;69.56;96680.19;5055274;28;20020;-58
2021/09/04 04:38:32;;;;;;;4.65;2.75;;;;;;;13.53;68.91;96682.75;5055348;28;20028;-56
2021/09/04 04:40:58;;;;;;;6.30;3.15;;;;;;;13.66;68.41;96687.44;5055302;28;20425;-57
2021/09/04 04:43:23;;;;;;;7.03;2.97;;;;;;;13.70;68.09;96675.84;5055074;28;20108;-57
2021/09/04 04:45:49;;;;;;;8.02;3.13;;;;;;;13.83;67.96;96673.47;5055099;28;20463;-55
2021/09/04 04:48:15;;;;;;;4.53;3.10;;;;;;;13.91;67.78;96676.56;5055195;28;20040;-59
2021/09/04 04:50:41;;;;;;;6.28;2.88;;;;;;;14.12;67.55;96669.38;5055184;28;20391;-58
2021/09/04 04:53:07;;;;;;;9.77;2.88;;;;;;;14.37;66.87;96672.53;5054942;28;20020;-58
2021/09/04 04:55:33;;;;;;;5.85;2.50;;;;;;;14.69;66.37;96683.16;5054933;28;20480;-56
2021/09/04 04:57:58;;;;;;;6.05;2.85;;;;;;;14.95;65.47;96682.75;5054794;28;20045;-58
2021/09/04 05:00:24;;;;;;;4.60;2.95;;;;;;;15.19;64.63;96679.72;5054914;28;20410;-57
2021/09/04 05:02:49;;;;;;;5.20;2.60;;;;;;;15.65;63.47;96673.69;5054657;28;20199;-59
2021/09/04 05:05:15;;;;;;;6.65;3.08;;;;;;;16.00;63.01;96673.50;5054763;28;20106;-57
2021/09/04 05:07:41;;;;;;;4.97;2.80;;;;;;;16.18;62.67;96676.00;5054499;28;20112;-59
2021/09/04 05:10:07;;;;;;;3.13;2.20;;;;;;;16.53;62.33;96677.50;5054577;28;20029;-55
2021/09/04 05:12:32;;;;;;;4.72;2.42;;;;;;;17.36;60.81;96673.34;5054692;28;20526;-57
2021/09/04 05:14:58;;;;;;;5.93;2.28;;;;;;;18.38;58.26;96680.06;5054542;28;20125;-58
2021/09/04 05:17:24;;;;;;;4.25;2.20;;;;;;;19.31;54.89;96679.00;5054570;28;20151;-60
2021/09/04 05:19:49;;;;;;;4.40;2.47;;;;;;;19.97;52.52;96687.56;5054400;28;20017;-57
2021/09/04 05:22:15;;;;;;;2.85;2.10;;;;;;;20.77;49.52;96685.16;5054322;28;20029;-59
2021/09/04 05:24:40;;;;;;;5.68;2.60;;;;;;;21.60;45.99;96684.06;5054332;28;20076;-58
2021/09/04 05:27:06;;;;;;;3.47;2.40;;;;;;;22.12;44.13;96680.78;5054189;28;20100;-60
2021/09/04 05:29:32;;;;;;;5.50;2.67;;;;;;;22.66;43.79;96672.78;5054321;28;20023;-60
2021/09/04 05:31:58;;;;;;;6.55;2.60;;;;;;;23.29;43.35;96662.09;5053315;28;20025;-59
2021/09/04 05:34:23;;;;;;;5.47;2.80;;;;;;;23.67;40.84;96663.25;5054115;28;20046;-56
2021/09/04 05:36:49;;;;;;;6.03;2.50;;;;;;;23.79;41.50;96668.44;5054132;28;20024;-59
2021/09/04 05:39:14;;;;;;;2.90;2.35;;;;;;;23.95;40.58;96671.41;5054063;28;20066;-60
2021/09/04 05:41:40;;;;;;;5.40;2.38;;;;;;;24.05;39.54;96674.06;5054136;28;20017;-58
2021/09/04 05:44:05;;;;;;;9.98;2.53;;;;;;;24.28;39.33;96664.97;5053947;28;20155;-60
2021/09/04 05:46:31;;;;;;;3.08;2.20;;;;;;;24.35;38.88;96658.09;5053858;28;20017;-59
2021/09/04 05:48:56;;;;;;;7.75;2.88;;;;;;;24.63;39.21;96658.19;5053742;28;20558;-59
2021/09/04 05:51:22;;;;;;;4.07;2.55;;;;;;;25.18;36.92;96659.28;5052686;28;20021;-59
2021/09/04 05:53:48;;;;;;;3.85;2.47;;;;;;;25.60;36.74;96666.00;5054195;28;20044;-59
2021/09/04 05:56:13;;;;;;;3.75;2.50;;;;;;;25.97;36.81;96658.84;5053677;28;20421;-58
2021/09/04 05:58:40;;;;;;;5.03;2.35;;;;;;;26.27;35.43;96660.44;5053480;28;20045;-60
2021/09/04 06:01:05;;;;;;;4.00;2.47;;;;;;;26.63;35.98;96657.69;5053613;28;20025;-59
2021/09/04 06:03:31;;;;;;;5.63;2.35;;;;;;;26.84;36.29;96664.53;5053654;28;20028;-58
2021/09/04 06:05:57;;;;;;;6.70;2.80;;;;;;;27.05;35.35;96669.56;5053671;28;20091;-59
2021/09/04 06:08:25;;;;;;;5.13;3.00;;;;;;;27.19;34.99;96657.38;5053348;28;20029;-59
2021/09/04 06:10:51;;;;;;;7.30;2.67;;;;;;;27.29;35.59;96653.72;5053519;28;20029;-59
2021/09/04 06:13:17;;;;;;;6.88;3.00;;;;;;;27.50;36.19;96658.66;5053521;28;20025;-59
2021/09/04 06:15:43;;;;;;;4.78;3.15;;;;;;;27.56;34.38;96668.75;5053517;28;20425;-59
2021/09/04 06:18:08;;;;;;;4.20;2.55;;;;;;;27.58;35.29;96660.53;5053556;28;20091;-57
2021/09/04 06:20:34;;;;;;;10.95;2.58;;;;;;;27.41;34.28;96665.00;5053244;28;20112;-56
2021/09/04 06:23:00;;;;;;;4.32;2.30;;;;;;;27.34;33.29;96663.00;5053195;28;20024;-58
2021/09/04 06:25:25;;;;;;;5.18;2.92;;;;;;;27.17;33.17;96667.44;5053244;28;20029;-57
2021/09/04 06:27:51;;;;;;;6.38;2.25;;;;;;;27.30;34.56;96679.59;5053147;28;20033;-59
2021/09/04 06:30:16;;;;;;;5.13;2.00;;;;;;;27.48;33.78;96679.50;5053124;28;20020;-60
2021/09/04 06:32:42;;;;;;;4.32;2.42;;;;;;;27.36;33.40;96676.25;5053062;28;20104;-59
2021/09/04 06:35:08;;;;;;;3.15;1.98;;;;;;;27.35;32.25;96669.19;5053169;28;20025;-60
2021/09/04 06:37:34;;;;;;;3.53;2.35;;;;;;;27.46;32.17;96681.47;5053069;28;20047;-58
2021/09/04 06:39:59;;;;;;;4.47;2.50;;;;;;;27.55;31.52;96676.97;5053255;28;20043;-61
2021/09/04 06:42:25;;;;;;;3.50;2.17;;;;;;;27.53;31.90;96674.47;5053018;28;20056;-59
2021/09/04 06:44:50;;;;;;;8.77;2.53;;;;;;;27.60;31.61;96664.75;5052867;28;20068;-59
2021/09/04 06:47:16;;;;;;;8.25;2.28;;;;;;;27.61;32.63;96673.66;5052866;28;20066;-57
2021/09/04 06:49:41;;;;;;;4.53;2.63;;;;;;;27.53;33.21;96669.09;5053079;28;20018;-59
2021/09/04 06:52:07;;;;;;;5.85;2.80;;;;;;;27.44;32.83;96667.38;5052972;28;20108;-59
2021/09/04 06:54:33;;;;;;;4.20;2.20;;;;;;;27.49;32.37;96671.28;5052976;28;20025;-58
2021/09/04 06:57:00;;;;;;;5.90;2.58;;;;;;;27.48;32.11;96672.25;5052768;28;20128;-59
2021/09/04 06:59:26;;;;;;;5.13;2.35;;;;;;;27.44;32.35;96672.75;5052573;28;20096;-59
2021/09/04 07:01:52;;;;;;;4.35;2.30;;;;;;;27.62;31.94;96683.38;5052828;28;20064;-60
2021/09/04 07:04:18;;;;;;;4.30;2.40;;;;;;;27.80;32.36;96685.97;5052869;28;20021;-60
2021/09/04 07:06:43;;;;;;;4.80;2.67;;;;;;;27.84;30.44;96689.19;5052972;28;20029;-58
2021/09/04 07:09:09;;;;;;;3.20;2.20;;;;;;;27.91;31.12;96684.84;5052608;28;20036;-58
2021/09/04 07:11:35;;;;;;;3.60;2.50;;;;;;;27.57;29.73;96683.88;5052781;28;20029;-57
2021/09/04 07:14:00;;;;;;;5.03;2.50;;;;;;;27.32;31.77;96686.47;5052865;28;20115;-58
2021/09/04 07:16:26;;;;;;;3.67;2.17;;;;;;;27.58;31.55;96687.41;5052878;28;20086;-58
2021/09/04 07:18:51;;;;;;;6.47;2.75;;;;;;;27.71;31.49;96682.44;5052763;28;20022;-60
2021/09/04 07:21:17;;;;;;;4.88;2.42;;;;;;;27.85;31.84;96678.28;5052674;28;20080;-59
2021/09/04 07:23:42;;;;;;;4.22;2.53;;;;;;;27.95;31.93;96672.75;5052701;28;20035;-60
2021/09/04 07:26:08;;;;;;;3.08;2.30;;;;;;;28.09;31.61;96670.41;5052760;28;20100;-59
2021/09/04 07:28:33;;;;;;;3.53;2.60;;;;;;;27.99;32.26;96671.41;5052691;28;20104;-58
2021/09/04 07:31:00;;;;;;;4.50;2.60;;;;;;;28.10;32.05;96680.16;5052680;28;20025;-58
2021/09/04 07:33:26;;;;;;;3.50;2.55;;;;;;;28.14;32.17;96684.19;5052534;28;20060;-58
2021/09/04 07:35:52;;;;;;;6.60;2.35;;;;;;;28.28;32.40;96688.06;5052725;28;20024;-57
2021/09/04 07:38:18;;;;;;;9.88;3.00;;;;;;;28.59;31.17;96692.78;5052489;28;20036;-58
2021/09/04 07:40:46;;;;;;;5.68;2.60;;;;;;;28.44;29.95;96687.25;5052602;28;20041;-60
2021/09/04 07:43:13;;;;;;;4.50;2.70;;;;;;;28.32;31.26;96685.94;5052490;28;20021;-58
2021/09/04 07:45:39;;;;;;;6.43;2.40;;;;;;;28.21;31.32;96674.47;5052496;28;20029;-59
2021/09/04 07:48:05;;;;;;;6.15;2.30;;;;;;;28.33;32.11;96675.00;5052408;28;20079;-59
2021/09/04 07:50:32;;;;;;;6.75;2.45;;;;;;;28.32;31.97;96673.31;5052526;28;20071;-59
2021/09/04 07:52:57;;;;;;;3.55;2.38;;;;;;;28.37;31.73;96665.59;5052329;28;20032;-58
2021/09/04 07:55:23;;;;;;;2.92;2.30;;;;;;;28.31;31.49;96668.09;5053584;28;20021;-60
2021/09/04 07:57:48;;;;;;;4.78;2.50;;;;;;;28.20;32.03;96664.69;5055927;28;20049;-58
2021/09/04 08:00:15;;;;;;;4.95;2.65;;;;;;;28.45;31.38;96661.22;5056018;28;20021;-58
2021/09/04 08:02:41;;;;;;;3.92;2.38;;;;;;;28.59;31.87;96665.91;5055998;28;20025;-58
2021/09/04 08:05:07;;;;;;;5.45;2.60;;;;;;;28.60;30.32;96658.69;5055919;28;20543;-58
2021/09/04 08:07:33;;;;;;;3.00;2.65;;;;;;;28.39;30.67;96657.34;5056021;28;20017;-60
2021/09/04 08:09:59;;;;;;;4.30;2.92;;;;;;;28.09;32.71;96647.06;5055970;28;20474;-58
2021/09/04 08:12:24;;;;;;;3.42;2.38;;;;;;;28.13;32.82;96651.09;5054489;28;20214;-60
2021/09/04 08:14:50;;;;;;;7.10;2.85;;;;;;;28.34;30.89;96646.25;5054711;28;20029;-60
2021/09/04 08:17:16;;;;;;;5.38;2.55;;;;;;;28.36;31.47;96645.06;5055725;28;20134;-56
2021/09/04 08:19:41;;;;;;;4.85;2.80;;;;;;;28.25;30.82;96645.38;5055650;28;20430;-60
2021/09/04 08:22:07;;;;;;;9.00;2.92;;;;;;;28.13;30.71;96639.50;5055555;28;20036;-59
2021/09/04 08:24:33;;;;;;;4.35;3.00;;;;;;;27.70;32.54;96636.94;5055664;28;20013;-58
2021/09/04 08:26:59;;;;;;;10.40;3.53;;;;;;;27.75;32.14;96642.63;5055396;28;20053;-58
2021/09/04 08:29:25;;;;;;;3.92;3.05;;;;;;;27.87;30.88;96638.63;5055366;28;20225;-59
2021/09/04 08:31:50;;;;;;;10.73;3.38;;;;;;;27.84;29.95;96644.34;5055548;28;20025;-58
2021/09/04 08:34:16;;;;;;;5.57;2.88;;;;;;;27.76;32.61;96649.72;5055317;28;20064;-59
2021/09/04 08:36:43;;;;;;;5.30;2.65;;;;;;;27.98;31.55;96644.69;5055221;28;20536;-59
2021/09/04 08:39:08;;;;;;;7.03;3.33;;;;;;;28.05;32.24;96653.78;5055419;28;20017;-60
2021/09/04 08:41:36;;;;;;;4.72;2.90;;;;;;;27.87;32.16;96646.69;5055219;28;20033;-60
2021/09/04 08:44:02;;;;;;;5.78;2.97;;;;;;;28.00;31.00;96642.69;5055191;28;20056;-58
2021/09/04 08:46:32;;;;;;;4.28;3.00;;;;;;;28.04;30.91;96648.56;5055050;28;20049;-60
2021/09/04 08:48:59;;;;;;;3.90;3.00;;;;;;;28.12;31.93;96641.34;5055001;28;20032;-58
2021/09/04 08:51:28;;;;;;;6.57;2.85;;;;;;;28.33;31.87;96639.19;5054812;28;20059;-58
2021/09/04 08:53:57;;;;;;;5.32;3.25;;;;;;;28.47;32.17;96629.63;5055027;28;20021;-60
2021/09/04 08:56:23;;;;;;;6.47;3.38;;;;;;;28.63;30.62;96626.88;5054995;28;20021;-60
2021/09/04 08:58:49;;;;;;;5.78;3.20;;;;;;;28.45;30.30;96631.63;5054583;28;20041;-59
2021/09/04 09:01:24;;;;;;;6.82;3.30;;;;;;;28.40;30.97;96629.44;5054750;28;20050;-59
2021/09/04 09:03:51;;;;;;;10.32;3.20;;;;;;;28.54;32.98;96625.25;5054681;28;20111;-58
2021/09/04 09:06:28;;;;;;;4.85;3.00;;;;;;;28.44;31.88;96620.03;5054775;28;20533;-58
2021/09/04 09:08:54;;;;;;;7.47;3.20;;;;;;;28.12;31.16;96629.75;5054599;28;20368;-58
2021/09/04 09:11:21;;;;;;;9.00;3.75;;;;;;;27.87;30.64;96627.03;5054573;28;20029;-60
2021/09/04 09:13:47;;;;;;;5.88;3.35;;;;;;;27.73;32.74;96607.06;5054505;28;20021;-58
2021/09/04 09:16:22;;;;;;;4.63;3.42;;;;;;;27.75;34.10;96610.41;5054564;28;20025;-60
2021/09/04 09:19:03;;;;;;;3.63;2.97;;;;;;;27.68;32.30;96604.88;5054555;28;20065;-58
2021/09/04 09:21:37;;;;;;;8.30;3.80;;;;;;;27.86;31.30;96606.56;5054482;28;20017;-59
2021/09/04 09:24:15;;;;;;;6.38;3.28;;;;;;;27.77;30.26;96610.22;5054323;28;20375;-60
2021/09/04 09:26:52;;;;;;;5.63;3.30;;;;;;;27.17;32.13;96610.22;5054349;28;20158;-59
2021/09/04 09:29:24;;;;;;;10.10;3.55;;;;;;;26.92;33.97;96624.34;5054177;28;20051;-60
2021/09/04 09:32:00;;;;;;;19.33;3.80;;;;;;;26.40;33.14;96625.22;5054468;28;20075;-59
2021/09/04 09:34:26;;;;;;;6.50;3.38;;;;;;;26.47;33.27;96627.13;5054236;28;20029;-58
2021/09/04 09:37:00;;;;;;;7.53;3.58;;;;;;;26.41;35.69;96626.88;5054068;28;20027;-59
2021/09/04 09:39:33;;;;;;;6.75;3.45;;;;;;;26.49;32.46;96621.59;5054323;28;20032;-58
2021/09/04 09:42:00;;;;;;;7.22;3.50;;;;;;;26.08;32.36;96619.41;5054215;28;20111;-59
2021/09/04 09:44:31;;;;;;;5.30;3.40;;;;;;;25.90;35.19;96620.25;5054112;28;20048;-59
2021/09/04 09:47:01;;;;;;;7.32;2.92;;;;;;;25.79;32.54;96621.31;5054007;28;20029;-59
2021/09/04 09:49:36;;;;;;;9.13;3.35;;;;;;;25.71;35.31;96616.72;5053829;28;20029;-57
2021/09/04 09:52:16;;;;;;;4.75;3.78;;;;;;;25.45;32.63;96608.56;5053925;28;20021;-58
2021/09/04 09:54:44;;;;;;;8.93;3.47;;;;;;;25.21;33.85;96602.78;5053873;28;20037;-58
2021/09/04 09:57:11;;;;;;;9.82;3.55;;;;;;;25.14;33.58;96604.38;5053721;28;20033;-58
2021/09/04 09:59:43;;;;;;;10.18;3.30;;;;;;;25.16;37.22;96606.91;5053472;28;20045;-59
2021/09/04 10:02:12;;;;;;;6.68;3.53;;;;;;;25.54;34.25;96596.09;5053635;28;20047;-58
2021/09/04 10:04:39;;;;;;;7.15;3.50;;;;;;;25.76;33.69;96589.47;5053696;28;20025;-58
2021/09/04 10:07:08;;;;;;;6.93;3.72;;;;;;;25.69;33.20;96586.59;5053592;28;20482;-59
2021/09/04 10:09:44;;;;;;;8.52;3.88;;;;;;;25.65;35.88;96589.72;5053358;28;20025;-60
2021/09/04 10:12:10;;;;;;;7.65;3.72;;;;;;;25.64;35.00;96590.72;5053534;28;20021;-58
2021/09/04 10:14:36;;;;;;;5.47;3.63;;;;;;;25.73;36.23;96596.00;5053583;28;20039;-59
2021/09/04 10:17:04;;;;;;;6.60;3.60;;;;;;;25.54;35.35;96588.06;5053523;28;20021;-59
2021/09/04 10:19:33;;;;;;;3.78;3.20;;;;;;;25.32;36.94;96592.88;5053057;28;20029;-58
2021/09/04 10:22:01;;;;;;;6.70;3.97;;;;;;;25.07;33.16;96588.06;5052127;28;20116;-58
2021/09/04 10:24:43;;;;;;;11.27;4.05;;;;;;;25.05;36.74;96583.88;5052052;28;20029;-58
2021/09/04 10:27:11;;;;;;;7.50;3.50;;;;;;;25.43;34.70;96586.47;5053379;28;20025;-59
2021/09/04 10:29:55;;;;;;;6.47;3.47;;;;;;;25.53;33.82;96586.41;5053290;28;20029;-58
2021/09/04 10:32:21;;;;;;;5.18;3.83;;;;;;;25.11;33.50;96577.94;5053262;28;20036;-59
2021/09/04 10:35:01;;;;;;;7.05;3.80;;;;;;;24.72;34.00;96571.72;5053138;28;20495;-57
2021/09/04 10:37:27;;;;;;;9.20;3.42;;;;;;;24.56;35.19;96575.03;5053149;28;20040;-58
2021/09/04 10:39:59;;;;;;;4.55;3.75;;;;;;;24.62;34.46;96578.94;5053177;28;20037;-57
2021/09/04 10:42:42;;;;;;;4.35;3.13;;;;;;;24.42;35.08;96572.81;5053066;28;20028;-56
2021/09/04 10:45:17;;;;;;;8.73;4.05;;;;;;;23.97;36.51;96570.63;5053085;28;20096;-58
2021/09/04 10:47:47;;;;;;;6.00;4.18;;;;;;;23.73;39.22;96576.41;5052974;28;20482;-58
2021/09/04 10:50:20;;;;;;;5.22;3.80;;;;;;;23.77;39.25;96569.78;5052947;28;20029;-58
2021/09/04 10:52:45;;;;;;;5.38;3.90;;;;;;;23.88;37.51;96559.94;5052998;28;20048;-58
2021/09/04 10:55:26;;;;;;;9.02;4.18;;;;;;;24.18;39.55;96556.28;5052862;28;20031;-59
2021/09/04 10:57:53;;;;;;;;;;;;;;;24.41;37.98;96553.25;5053270;28;20053;-58
2021/09/04 11:00:26;;;;;;;6.88;4.32;;;;;;;24.57;35.08;96550.00;5053007;28;20294;-58
2021/09/04 11:03:03;;;;;;;6.90;3.58;;;;;;;24.82;33.74;96544.94;5052832;28;20104;-58
2021/09/04 11:05:34;;;;;;;7.95;4.30;;;;;;;24.82;33.96;96538.75;5052897;28;20491;-58
2021/09/04 11:08:11;;;;;;;4.90;3.83;;;;;;;24.76;36.27;96540.19;5052739;28;20032;-59
2021/09/04 11:10:39;;;;;;;5.28;4.30;;;;;;;24.57;35.47;96535.78;5052870;28;20102;-58
2021/09/04 11:13:14;;;;;;;7.43;4.07;;;;;;;24.69;36.40;96539.09;5052848;28;20090;-58
2021/09/04 11:15:40;;;;;;;6.38;3.88;;;;;;;24.74;35.21;96537.66;5052854;28;20032;-58
2021/09/04 11:18:07;;;;;;;4.28;3.88;;;;;;;24.88;36.65;96540.00;5052828;28;20025;-58
2021/09/04 11:20:42;;;;;;;7.15;4.22;;;;;;;24.84;36.90;96540.28;5052698;28;20434;-58
2021/09/04 11:23:08;;;;;;;7.10;3.90;;;;;;;25.04;34.34;96536.72;5052695;28;20541;-58
2021/09/04 11:25:34;;;;;;;4.93;3.90;;;;;;;25.46;35.61;96544.16;5052620;28;20475;-58
2021/09/04 11:28:00;;;;;;;5.47;3.95;;;;;;;25.65;32.91;96536.16;5052561;28;20025;-59
2021/09/04 11:30:26;;;;;;;8.05;4.15;;;;;;;25.80;32.13;96528.44;5054024;28;20032;-58
2021/09/04 11:32:52;;;;;;;7.05;3.78;;;;;;;25.80;34.36;96525.75;5056512;28;20029;-59